SWA5040 KFLL-KSDF
Flight info
| Callsign | SWA5040 |
|---|---|
| Flight time | 2h 7m |
| Altitude | 36000 |
| Route | FRSBE2 STYMY Q77 WIGVO GLAZR LEDDL1 |
| Aircraft | B738/M-SDE2E3FGHIRWXY/LB1 |
Departure
| Time | 2026-05-04 00:02 |
|---|---|
| Airport | Fort Lauderdale Hollywood International Airport (KFLL) |
Arrival
| Time | 2026-05-04 02:09 |
|---|---|
| Airport | Louisville Muhammad Ali International Airport (KSDF) |
| Time | Latitude | Longitude | Altitude | Speed | Heading |
|---|---|---|---|---|---|
| 2026-05-03 22:40 | 26.07367 | -80.13909 | 15 ft | 0 kts | 118° |
| 2026-05-03 22:47 | 26.07370 | -80.13915 | 15 ft | 2 kts | 119° |
| 2026-05-03 22:48 | 26.07378 | -80.13931 | 15 ft | 2 kts | 119° |
| 2026-05-03 22:48 | 26.07386 | -80.13947 | 15 ft | 2 kts | 120° |
| 2026-05-03 22:48 | 26.07394 | -80.13963 | 15 ft | 2 kts | 99° |
| 2026-05-03 22:48 | 26.07393 | -80.13979 | 18 ft | 1 kts | 38° |
| 2026-05-03 22:49 | 26.07386 | -80.13984 | 16 ft | 1 kts | 20° |
| 2026-05-03 22:49 | 26.07384 | -80.13985 | 16 ft | 0 kts | 20° |
| 2026-05-03 22:58 | 26.07413 | -80.13975 | 15 ft | 14 kts | 17° |
| 2026-05-03 22:59 | 26.07485 | -80.14023 | 16 ft | 15 kts | 274° |
| 2026-05-03 22:59 | 26.07485 | -80.14125 | 17 ft | 9 kts | 271° |
| 2026-05-03 22:59 | 26.07487 | -80.14192 | 22 ft | 9 kts | 271° |
| 2026-05-03 22:59 | 26.07487 | -80.14270 | 17 ft | 11 kts | 270° |
| 2026-05-03 23:00 | 26.07487 | -80.14331 | 17 ft | 3 kts | 270° |
| 2026-05-03 23:00 | 26.07487 | -80.14359 | 17 ft | 5 kts | 270° |
| 2026-05-03 23:00 | 26.07488 | -80.14428 | 18 ft | 13 kts | 270° |
| 2026-05-03 23:00 | 26.07488 | -80.14531 | 19 ft | 13 kts | 270° |
| 2026-05-03 23:01 | 26.07489 | -80.14630 | 19 ft | 13 kts | 270° |
| 2026-05-03 23:01 | 26.07490 | -80.14727 | 17 ft | 14 kts | 271° |
| 2026-05-03 23:01 | 26.07491 | -80.14841 | 14 ft | 15 kts | 263° |
| 2026-05-03 23:01 | 26.07489 | -80.14959 | 14 ft | 15 kts | 270° |
| 2026-05-03 23:02 | 26.07490 | -80.15082 | 14 ft | 18 kts | 270° |
| 2026-05-03 23:02 | 26.07490 | -80.15225 | 11 ft | 19 kts | 270° |
| 2026-05-03 23:02 | 26.07491 | -80.15370 | 10 ft | 18 kts | 270° |
| 2026-05-03 23:02 | 26.07492 | -80.15506 | 12 ft | 18 kts | 270° |
| 2026-05-03 23:03 | 26.07492 | -80.15645 | 13 ft | 18 kts | 270° |
| 2026-05-03 23:03 | 26.07493 | -80.15786 | 13 ft | 18 kts | 271° |
| 2026-05-03 23:03 | 26.07494 | -80.15903 | 15 ft | 7 kts | 271° |
| 2026-05-03 23:03 | 26.07494 | -80.15913 | 15 ft | 0 kts | 271° |
| 2026-05-03 23:04 | 26.07494 | -80.15916 | 15 ft | 3 kts | 271° |
| 2026-05-03 23:04 | 26.07495 | -80.15957 | 16 ft | 6 kts | 270° |
| 2026-05-03 23:04 | 26.07495 | -80.15967 | 16 ft | 0 kts | 270° |
| 2026-05-03 23:08 | 26.07495 | -80.15978 | 17 ft | 0 kts | 270° |
| 2026-05-03 23:08 | 26.07495 | -80.16029 | 18 ft | 6 kts | 270° |
| 2026-05-03 23:09 | 26.07495 | -80.16051 | 18 ft | 0 kts | 270° |
| 2026-05-03 23:12 | 26.07495 | -80.16052 | 18 ft | 0 kts | 270° |
| 2026-05-03 23:13 | 26.07495 | -80.16065 | 18 ft | 2 kts | 270° |
| 2026-05-03 23:14 | 26.07495 | -80.16078 | 19 ft | 7 kts | 270° |
| 2026-05-03 23:14 | 26.07496 | -80.16160 | 19 ft | 12 kts | 270° |
| 2026-05-03 23:15 | 26.07496 | -80.16202 | 18 ft | 2 kts | 269° |
| 2026-05-03 23:15 | 26.07496 | -80.16209 | 18 ft | 0 kts | 270° |
| 2026-05-03 23:16 | 26.07496 | -80.16223 | 18 ft | 4 kts | 270° |
| 2026-05-03 23:16 | 26.07496 | -80.16248 | 18 ft | 0 kts | 269° |
| 2026-05-03 23:17 | 26.07496 | -80.16257 | 18 ft | 3 kts | 271° |
| 2026-05-03 23:18 | 26.07496 | -80.16271 | 18 ft | 0 kts | 270° |
| 2026-05-03 23:27 | 26.07496 | -80.16272 | 18 ft | 2 kts | 270° |
| 2026-05-03 23:27 | 26.07496 | -80.16318 | 17 ft | 7 kts | 271° |
| 2026-05-03 23:27 | 26.07496 | -80.16338 | 17 ft | 0 kts | 270° |
| 2026-05-03 23:35 | 26.07496 | -80.16345 | 17 ft | 2 kts | 270° |
| 2026-05-03 23:36 | 26.07496 | -80.16357 | 17 ft | 0 kts | 270° |
| 2026-05-03 23:41 | 26.07496 | -80.16358 | 17 ft | 3 kts | 270° |
| 2026-05-03 23:41 | 26.07497 | -80.16427 | 17 ft | 7 kts | 270° |
| 2026-05-03 23:42 | 26.07497 | -80.16434 | 17 ft | 0 kts | 270° |
| 2026-05-03 23:44 | 26.07497 | -80.16484 | 18 ft | 0 kts | 270° |
| 2026-05-03 23:46 | 26.07497 | -80.16517 | 18 ft | 5 kts | 270° |
| 2026-05-03 23:46 | 26.07497 | -80.16519 | 18 ft | 0 kts | 270° |
| 2026-05-03 23:50 | 26.07497 | -80.16550 | 18 ft | 6 kts | 270° |
| 2026-05-03 23:50 | 26.07497 | -80.16564 | 18 ft | 0 kts | 270° |
| 2026-05-03 23:52 | 26.07497 | -80.16565 | 17 ft | 1 kts | 270° |
| 2026-05-03 23:52 | 26.07499 | -80.16607 | 17 ft | 7 kts | 281° |
| 2026-05-03 23:52 | 26.07502 | -80.16615 | 17 ft | 0 kts | 291° |
| 2026-05-03 23:55 | 26.07502 | -80.16616 | 17 ft | 0 kts | 291° |
| 2026-05-03 23:55 | 26.07510 | -80.16628 | 18 ft | 5 kts | 308° |
| 2026-05-03 23:55 | 26.07542 | -80.16643 | 16 ft | 0 kts | 359° |
| 2026-05-03 23:58 | 26.07546 | -80.16643 | 16 ft | 4 kts | 359° |
| 2026-05-03 23:58 | 26.07585 | -80.16643 | 16 ft | 0 kts | 360° |
| 2026-05-04 00:01 | 26.07598 | -80.16643 | 4 ft | 9 kts | 0° |
| 2026-05-04 00:01 | 26.07684 | -80.16625 | 14 ft | 12 kts | 48° |
| 2026-05-04 00:01 | 26.07693 | -80.16585 | 16 ft | 2 kts | 88° |
| 2026-05-04 00:01 | 26.07694 | -80.16348 | 20 ft | 73 kts | 90° |
| 2026-05-04 00:02 | 26.07689 | -80.15459 | 10 ft | 154 kts | 88° |
| 2026-05-04 00:02 | 26.07685 | -80.14107 | 464 ft | 188 kts | 88° |
| 2026-05-04 00:02 | 26.07678 | -80.12563 | 1277 ft | 210 kts | 89° |
| 2026-05-04 00:02 | 26.07691 | -80.10909 | 2128 ft | 220 kts | 88° |
| 2026-05-04 00:03 | 26.08068 | -80.09180 | 2541 ft | 240 kts | 59° |
| 2026-05-04 00:03 | 26.09173 | -80.07692 | 2863 ft | 260 kts | 43° |
| 2026-05-04 00:03 | 26.10563 | -80.06360 | 3475 ft | 265 kts | 26° |
| 2026-05-04 00:03 | 26.12298 | -80.05633 | 3968 ft | 270 kts | 16° |
| 2026-05-04 00:04 | 26.14080 | -80.04990 | 3996 ft | 267 kts | 14° |
| 2026-05-04 00:04 | 26.15907 | -80.04812 | 4015 ft | 266 kts | 349° |
| 2026-05-04 00:04 | 26.17671 | -80.05356 | 4028 ft | 268 kts | 339° |
| 2026-05-04 00:04 | 26.19450 | -80.06070 | 4025 ft | 268 kts | 338° |
| 2026-05-04 00:05 | 26.21163 | -80.06797 | 4017 ft | 266 kts | 330° |
| 2026-05-04 00:05 | 26.22546 | -80.08104 | 4019 ft | 260 kts | 304° |
| 2026-05-04 00:05 | 26.23394 | -80.09869 | 4025 ft | 259 kts | 291° |
| 2026-05-04 00:05 | 26.24051 | -80.11746 | 4034 ft | 262 kts | 290° |
| 2026-05-04 00:06 | 26.24700 | -80.13650 | 4035 ft | 263 kts | 290° |
| 2026-05-04 00:06 | 26.25357 | -80.15549 | 4017 ft | 262 kts | 291° |
| 2026-05-04 00:06 | 26.26171 | -80.17359 | 4027 ft | 261 kts | 300° |
| 2026-05-04 00:06 | 26.27143 | -80.19080 | 4036 ft | 264 kts | 302° |
| 2026-05-04 00:07 | 26.28162 | -80.20817 | 4494 ft | 268 kts | 302° |
| 2026-05-04 00:07 | 26.29170 | -80.22534 | 5423 ft | 263 kts | 301° |
| 2026-05-04 00:07 | 26.30165 | -80.24246 | 6184 ft | 265 kts | 300° |
| 2026-05-04 00:07 | 26.31170 | -80.25988 | 6877 ft | 268 kts | 300° |
| 2026-05-04 00:08 | 26.32175 | -80.27739 | 7585 ft | 269 kts | 300° |
| 2026-05-04 00:08 | 26.33182 | -80.29503 | 8303 ft | 271 kts | 300° |
| 2026-05-04 00:08 | 26.34195 | -80.31280 | 9015 ft | 273 kts | 299° |
| 2026-05-04 00:08 | 26.35215 | -80.33075 | 9737 ft | 275 kts | 299° |
| 2026-05-04 00:09 | 26.36242 | -80.34886 | 10345 ft | 281 kts | 299° |
| 2026-05-04 00:09 | 26.37323 | -80.36798 | 10504 ft | 302 kts | 299° |
| 2026-05-04 00:09 | 26.38476 | -80.38839 | 10660 ft | 323 kts | 299° |
| 2026-05-04 00:09 | 26.39712 | -80.41025 | 10809 ft | 341 kts | 299° |
| 2026-05-04 00:10 | 26.41010 | -80.43319 | 10991 ft | 356 kts | 300° |
| 2026-05-04 00:10 | 26.42334 | -80.45655 | 11447 ft | 362 kts | 300° |
| 2026-05-04 00:10 | 26.43692 | -80.48053 | 12046 ft | 363 kts | 299° |
| 2026-05-04 00:10 | 26.45045 | -80.50446 | 12659 ft | 365 kts | 299° |
| 2026-05-04 00:11 | 26.46403 | -80.52850 | 13250 ft | 367 kts | 299° |
| 2026-05-04 00:11 | 26.47929 | -80.55149 | 13819 ft | 375 kts | 312° |
| 2026-05-04 00:11 | 26.50059 | -80.56894 | 14347 ft | 386 kts | 328° |
| 2026-05-04 00:11 | 26.52609 | -80.57934 | 14877 ft | 395 kts | 338° |
| 2026-05-04 00:12 | 26.55272 | -80.58776 | 15377 ft | 400 kts | 339° |
| 2026-05-04 00:12 | 26.57936 | -80.59579 | 15848 ft | 404 kts | 339° |
| 2026-05-04 00:12 | 26.60663 | -80.60402 | 16353 ft | 407 kts | 339° |
| 2026-05-04 00:12 | 26.63396 | -80.61239 | 16839 ft | 410 kts | 339° |
| 2026-05-04 00:13 | 26.66162 | -80.62101 | 17317 ft | 413 kts | 338° |
| 2026-05-04 00:13 | 26.68940 | -80.62976 | 17795 ft | 417 kts | 338° |
| 2026-05-04 00:13 | 26.71736 | -80.63864 | 18262 ft | 420 kts | 338° |
| 2026-05-04 00:13 | 26.74547 | -80.64759 | 18658 ft | 423 kts | 338° |
| 2026-05-04 00:14 | 26.77390 | -80.65666 | 19053 ft | 426 kts | 337° |
| 2026-05-04 00:14 | 26.80244 | -80.66575 | 19467 ft | 428 kts | 337° |
| 2026-05-04 00:14 | 26.83122 | -80.67493 | 19855 ft | 431 kts | 337° |
| 2026-05-04 00:14 | 26.86010 | -80.68414 | 20235 ft | 433 kts | 337° |
| 2026-05-04 00:15 | 26.88919 | -80.69343 | 20621 ft | 436 kts | 336° |
| 2026-05-04 00:15 | 26.91845 | -80.70280 | 20989 ft | 438 kts | 336° |
| 2026-05-04 00:15 | 26.94751 | -80.71308 | 21352 ft | 439 kts | 334° |
| 2026-05-04 00:15 | 26.97640 | -80.72410 | 21718 ft | 440 kts | 333° |
| 2026-05-04 00:16 | 27.00542 | -80.73541 | 22066 ft | 443 kts | 333° |
| 2026-05-04 00:16 | 27.03471 | -80.74682 | 22404 ft | 446 kts | 333° |
| 2026-05-04 00:16 | 27.06406 | -80.75814 | 22748 ft | 448 kts | 333° |
| 2026-05-04 00:16 | 27.09371 | -80.76947 | 23097 ft | 450 kts | 333° |
| 2026-05-04 00:17 | 27.12345 | -80.78077 | 23418 ft | 453 kts | 333° |
| 2026-05-04 00:17 | 27.15342 | -80.79212 | 23726 ft | 455 kts | 333° |
| 2026-05-04 00:17 | 27.18344 | -80.80349 | 24005 ft | 457 kts | 333° |
| 2026-05-04 00:17 | 27.21353 | -80.81490 | 24292 ft | 458 kts | 333° |
| 2026-05-04 00:18 | 27.24384 | -80.82639 | 24578 ft | 459 kts | 333° |
| 2026-05-04 00:18 | 27.27413 | -80.83790 | 24853 ft | 461 kts | 333° |
| 2026-05-04 00:18 | 27.30455 | -80.84946 | 25127 ft | 462 kts | 333° |
| 2026-05-04 00:18 | 27.33511 | -80.86118 | 25409 ft | 463 kts | 332° |
| 2026-05-04 00:19 | 27.36549 | -80.87340 | 25666 ft | 464 kts | 332° |
| 2026-05-04 00:19 | 27.39587 | -80.88597 | 25923 ft | 466 kts | 331° |
| 2026-05-04 00:19 | 27.42628 | -80.89867 | 26179 ft | 467 kts | 331° |
| 2026-05-04 00:19 | 27.45412 | -80.91029 | 26413 ft | 469 kts | 331° |
| 2026-05-04 00:20 | 27.48513 | -80.92319 | 26675 ft | 470 kts | 331° |
| 2026-05-04 00:20 | 27.51553 | -80.93580 | 26935 ft | 472 kts | 331° |
| 2026-05-04 00:20 | 27.54639 | -80.94856 | 27186 ft | 474 kts | 331° |
| 2026-05-04 00:20 | 27.57734 | -80.96134 | 27408 ft | 475 kts | 331° |
| 2026-05-04 00:21 | 27.60845 | -80.97418 | 27656 ft | 477 kts | 331° |
| 2026-05-04 00:21 | 27.63964 | -80.98707 | 27915 ft | 478 kts | 331° |
| 2026-05-04 00:21 | 27.67084 | -80.99995 | 28267 ft | 476 kts | 331° |
| 2026-05-04 00:21 | 27.70183 | -81.01275 | 28679 ft | 474 kts | 331° |
| 2026-05-04 00:22 | 27.73275 | -81.02553 | 29101 ft | 472 kts | 331° |
| 2026-05-04 00:22 | 27.76352 | -81.03827 | 29470 ft | 471 kts | 331° |
| 2026-05-04 00:22 | 27.79428 | -81.05103 | 29825 ft | 470 kts | 330° |
| 2026-05-04 00:22 | 27.82495 | -81.06376 | 30197 ft | 469 kts | 330° |
| 2026-05-04 00:23 | 27.85556 | -81.07647 | 30527 ft | 468 kts | 330° |
| 2026-05-04 00:23 | 27.88607 | -81.08916 | 30815 ft | 468 kts | 330° |
| 2026-05-04 00:23 | 27.91666 | -81.10189 | 31056 ft | 469 kts | 329° |
| 2026-05-04 00:23 | 27.94726 | -81.11462 | 31353 ft | 469 kts | 329° |
| 2026-05-04 00:24 | 27.97787 | -81.12736 | 31662 ft | 468 kts | 329° |
| 2026-05-04 00:24 | 28.00839 | -81.14006 | 31951 ft | 467 kts | 329° |
| 2026-05-04 00:24 | 28.03888 | -81.15281 | 32214 ft | 467 kts | 328° |
| 2026-05-04 00:24 | 28.06871 | -81.16678 | 32462 ft | 462 kts | 324° |
| 2026-05-04 00:25 | 28.09795 | -81.18184 | 32748 ft | 460 kts | 323° |
| 2026-05-04 00:25 | 28.12686 | -81.19721 | 33050 ft | 459 kts | 323° |
| 2026-05-04 00:25 | 28.15575 | -81.21256 | 33317 ft | 459 kts | 323° |
| 2026-05-04 00:25 | 28.18477 | -81.22782 | 33570 ft | 460 kts | 323° |
| 2026-05-04 00:26 | 28.21388 | -81.24295 | 33825 ft | 460 kts | 323° |
| 2026-05-04 00:26 | 28.24302 | -81.25798 | 34085 ft | 460 kts | 322° |
| 2026-05-04 00:26 | 28.27218 | -81.27298 | 34317 ft | 460 kts | 322° |
| 2026-05-04 00:26 | 28.30120 | -81.28791 | 34565 ft | 458 kts | 322° |
| 2026-05-04 00:27 | 28.33024 | -81.30288 | 34826 ft | 457 kts | 322° |
| 2026-05-04 00:27 | 28.35907 | -81.31774 | 35069 ft | 456 kts | 322° |
| 2026-05-04 00:27 | 28.38802 | -81.33254 | 35301 ft | 455 kts | 322° |
| 2026-05-04 00:27 | 28.41690 | -81.34725 | 35529 ft | 454 kts | 322° |
| 2026-05-04 00:28 | 28.44569 | -81.36190 | 35759 ft | 453 kts | 322° |
| 2026-05-04 00:28 | 28.47447 | -81.37657 | 35983 ft | 452 kts | 322° |
| 2026-05-04 00:28 | 28.50320 | -81.39125 | 36090 ft | 454 kts | 321° |
| 2026-05-04 00:28 | 28.53202 | -81.40602 | 36094 ft | 455 kts | 322° |
| 2026-05-04 00:29 | 28.58962 | -81.43548 | 36094 ft | 452 kts | 321° |
| 2026-05-04 00:29 | 28.64672 | -81.46472 | 36100 ft | 449 kts | 321° |
| 2026-05-04 00:30 | 28.70351 | -81.49388 | 36099 ft | 447 kts | 321° |
| 2026-05-04 00:30 | 28.75967 | -81.52276 | 36100 ft | 445 kts | 321° |
| 2026-05-04 00:31 | 28.81649 | -81.55202 | 36103 ft | 445 kts | 321° |
| 2026-05-04 00:31 | 28.87103 | -81.58013 | 36105 ft | 446 kts | 321° |
| 2026-05-04 00:32 | 28.92885 | -81.60664 | 36094 ft | 465 kts | 331° |
| 2026-05-04 00:32 | 28.96131 | -81.61389 | 36096 ft | 484 kts | 340° |
| 2026-05-04 00:32 | 28.99503 | -81.61740 | 36109 ft | 489 kts | 342° |
| 2026-05-04 00:33 | 29.09735 | -81.62512 | 36103 ft | 492 kts | 343° |
| 2026-05-04 00:34 | 29.16570 | -81.63086 | 36109 ft | 492 kts | 342° |
| 2026-05-04 00:34 | 29.23399 | -81.63710 | 36107 ft | 492 kts | 342° |
| 2026-05-04 00:35 | 29.30228 | -81.64345 | 36113 ft | 492 kts | 342° |
| 2026-05-04 00:35 | 29.37044 | -81.64975 | 36117 ft | 491 kts | 342° |
| 2026-05-04 00:36 | 29.42705 | -81.65497 | 36117 ft | 490 kts | 342° |
| 2026-05-04 00:36 | 29.49491 | -81.66124 | 36117 ft | 488 kts | 342° |
| 2026-05-04 00:37 | 29.56026 | -81.66729 | 36120 ft | 487 kts | 342° |
| 2026-05-04 00:37 | 29.62766 | -81.67355 | 36118 ft | 485 kts | 343° |
| 2026-05-04 00:38 | 29.69481 | -81.67978 | 36123 ft | 483 kts | 343° |
| 2026-05-04 00:38 | 29.76180 | -81.68597 | 36123 ft | 482 kts | 343° |
| 2026-05-04 00:39 | 29.82852 | -81.69210 | 36129 ft | 481 kts | 343° |
| 2026-05-04 00:39 | 29.89530 | -81.69826 | 36126 ft | 480 kts | 343° |
| 2026-05-04 00:40 | 29.96191 | -81.70443 | 36123 ft | 480 kts | 343° |
| 2026-05-04 00:40 | 30.02847 | -81.71059 | 36127 ft | 480 kts | 343° |
| 2026-05-04 00:41 | 30.09502 | -81.71677 | 36138 ft | 480 kts | 343° |
| 2026-05-04 00:41 | 30.16155 | -81.72295 | 36142 ft | 480 kts | 343° |
| 2026-05-04 00:42 | 30.22783 | -81.72911 | 36143 ft | 481 kts | 343° |
| 2026-05-04 00:42 | 30.29238 | -81.73511 | 36148 ft | 481 kts | 343° |
| 2026-05-04 00:43 | 30.35913 | -81.74133 | 36155 ft | 482 kts | 343° |
| 2026-05-04 00:43 | 30.42599 | -81.74757 | 36132 ft | 482 kts | 344° |
| 2026-05-04 00:44 | 30.49282 | -81.75381 | 36122 ft | 481 kts | 344° |
| 2026-05-04 00:44 | 30.55704 | -81.75982 | 36124 ft | 481 kts | 344° |
| 2026-05-04 00:45 | 30.62366 | -81.76616 | 36123 ft | 478 kts | 342° |
| 2026-05-04 00:45 | 30.68876 | -81.77761 | 36124 ft | 470 kts | 338° |
| 2026-05-04 00:46 | 30.75313 | -81.79128 | 36123 ft | 469 kts | 338° |
| 2026-05-04 00:46 | 30.81734 | -81.80478 | 36114 ft | 469 kts | 339° |
| 2026-05-04 00:47 | 30.88130 | -81.81780 | 36115 ft | 469 kts | 339° |
| 2026-05-04 00:47 | 30.94555 | -81.83072 | 36112 ft | 469 kts | 339° |
| 2026-05-04 00:48 | 31.00980 | -81.84363 | 36116 ft | 469 kts | 339° |
| 2026-05-04 00:48 | 31.07411 | -81.85659 | 36113 ft | 468 kts | 339° |
| 2026-05-04 00:49 | 31.13843 | -81.86958 | 36117 ft | 469 kts | 339° |
| 2026-05-04 00:49 | 31.20265 | -81.88258 | 36116 ft | 469 kts | 339° |
| 2026-05-04 00:50 | 31.26710 | -81.89563 | 36122 ft | 469 kts | 339° |
| 2026-05-04 00:50 | 31.33155 | -81.90870 | 36132 ft | 470 kts | 340° |
| 2026-05-04 00:51 | 31.39559 | -81.92171 | 36139 ft | 470 kts | 340° |
| 2026-05-04 00:51 | 31.46010 | -81.93483 | 36148 ft | 471 kts | 340° |
| 2026-05-04 00:52 | 31.52469 | -81.94798 | 36151 ft | 472 kts | 340° |
| 2026-05-04 00:52 | 31.58938 | -81.96117 | 36148 ft | 472 kts | 340° |
| 2026-05-04 00:53 | 31.65414 | -81.97440 | 36143 ft | 473 kts | 340° |
| 2026-05-04 00:53 | 31.71898 | -81.98766 | 36140 ft | 473 kts | 340° |
| 2026-05-04 00:54 | 31.78391 | -82.00095 | 36127 ft | 474 kts | 340° |
| 2026-05-04 00:54 | 31.84887 | -82.01427 | 36110 ft | 474 kts | 340° |
| 2026-05-04 00:55 | 31.91544 | -82.02163 | 36119 ft | 485 kts | 349° |
| 2026-05-04 00:55 | 31.98311 | -82.02296 | 36118 ft | 487 kts | 350° |
| 2026-05-04 00:56 | 32.05037 | -82.02430 | 36114 ft | 486 kts | 350° |
| 2026-05-04 00:56 | 32.11793 | -82.02637 | 36108 ft | 485 kts | 349° |
| 2026-05-04 00:57 | 32.18544 | -82.02872 | 36116 ft | 485 kts | 349° |
| 2026-05-04 00:57 | 32.25283 | -82.03105 | 36110 ft | 484 kts | 349° |
| 2026-05-04 00:58 | 32.32014 | -82.03334 | 36119 ft | 484 kts | 349° |
| 2026-05-04 00:58 | 32.38744 | -82.03563 | 36119 ft | 484 kts | 349° |
| 2026-05-04 00:59 | 32.45325 | -82.04425 | 36118 ft | 466 kts | 336° |
| 2026-05-04 00:59 | 32.51184 | -82.07237 | 36116 ft | 446 kts | 322° |
| 2026-05-04 01:00 | 32.56590 | -82.10844 | 36107 ft | 445 kts | 321° |
| 2026-05-04 01:00 | 32.61986 | -82.14457 | 36094 ft | 446 kts | 321° |
| 2026-05-04 01:01 | 32.67371 | -82.18029 | 36088 ft | 446 kts | 322° |
| 2026-05-04 01:01 | 32.72802 | -82.21614 | 36087 ft | 447 kts | 322° |
| 2026-05-04 01:02 | 32.78235 | -82.25200 | 36073 ft | 447 kts | 322° |
| 2026-05-04 01:02 | 32.83672 | -82.28792 | 36080 ft | 447 kts | 322° |
| 2026-05-04 01:03 | 32.89111 | -82.32392 | 36079 ft | 447 kts | 322° |
| 2026-05-04 01:03 | 32.94544 | -82.35993 | 36076 ft | 447 kts | 322° |
| 2026-05-04 01:04 | 32.99986 | -82.39606 | 36072 ft | 447 kts | 322° |
| 2026-05-04 01:04 | 33.05413 | -82.43213 | 36078 ft | 447 kts | 322° |
| 2026-05-04 01:05 | 33.10848 | -82.46833 | 36079 ft | 447 kts | 322° |
| 2026-05-04 01:05 | 33.16276 | -82.50451 | 36076 ft | 447 kts | 323° |
| 2026-05-04 01:06 | 33.21704 | -82.54075 | 36088 ft | 447 kts | 323° |
| 2026-05-04 01:06 | 33.27124 | -82.57699 | 36106 ft | 446 kts | 323° |
| 2026-05-04 01:07 | 33.32544 | -82.61328 | 36116 ft | 446 kts | 323° |
| 2026-05-04 01:07 | 33.37953 | -82.64955 | 36129 ft | 445 kts | 323° |
| 2026-05-04 01:08 | 33.43317 | -82.68557 | 36127 ft | 445 kts | 323° |
| 2026-05-04 01:08 | 33.48723 | -82.72192 | 36131 ft | 445 kts | 323° |
| 2026-05-04 01:09 | 33.54110 | -82.75820 | 36125 ft | 444 kts | 323° |
| 2026-05-04 01:09 | 33.59500 | -82.79456 | 36097 ft | 444 kts | 323° |
| 2026-05-04 01:10 | 33.64887 | -82.83094 | 36100 ft | 444 kts | 324° |
| 2026-05-04 01:10 | 33.70269 | -82.86735 | 36104 ft | 444 kts | 324° |
| 2026-05-04 01:11 | 33.75645 | -82.90376 | 36110 ft | 443 kts | 324° |
| 2026-05-04 01:11 | 33.81014 | -82.94019 | 36105 ft | 443 kts | 324° |
| 2026-05-04 01:12 | 33.86382 | -82.97665 | 36095 ft | 443 kts | 324° |
| 2026-05-04 01:12 | 33.91747 | -83.01315 | 36103 ft | 443 kts | 324° |
| 2026-05-04 01:13 | 33.97115 | -83.04973 | 36090 ft | 443 kts | 325° |
| 2026-05-04 01:13 | 34.02477 | -83.08631 | 36088 ft | 442 kts | 325° |
| 2026-05-04 01:14 | 34.07825 | -83.12286 | 36096 ft | 442 kts | 325° |
| 2026-05-04 01:14 | 34.13164 | -83.15939 | 36096 ft | 441 kts | 325° |
| 2026-05-04 01:15 | 34.18493 | -83.19591 | 36089 ft | 440 kts | 326° |
| 2026-05-04 01:15 | 34.23816 | -83.23244 | 36087 ft | 440 kts | 326° |
| 2026-05-04 01:16 | 34.29134 | -83.26899 | 36089 ft | 439 kts | 326° |
| 2026-05-04 01:16 | 34.34400 | -83.30524 | 36087 ft | 438 kts | 326° |
| 2026-05-04 01:17 | 34.39724 | -83.34194 | 36093 ft | 437 kts | 326° |
| 2026-05-04 01:17 | 34.45000 | -83.37837 | 36099 ft | 436 kts | 326° |
| 2026-05-04 01:18 | 34.50232 | -83.41453 | 36099 ft | 435 kts | 326° |
| 2026-05-04 01:18 | 34.55478 | -83.45086 | 36103 ft | 434 kts | 326° |
| 2026-05-04 01:19 | 34.60723 | -83.48723 | 36099 ft | 433 kts | 326° |
| 2026-05-04 01:19 | 34.65951 | -83.52353 | 36097 ft | 433 kts | 326° |
| 2026-05-04 01:20 | 34.71173 | -83.55985 | 36102 ft | 432 kts | 326° |
| 2026-05-04 01:20 | 34.76383 | -83.59613 | 36100 ft | 431 kts | 326° |
| 2026-05-04 01:21 | 34.81590 | -83.63246 | 36107 ft | 431 kts | 326° |
| 2026-05-04 01:21 | 34.86790 | -83.66878 | 36121 ft | 430 kts | 326° |
| 2026-05-04 01:22 | 34.91982 | -83.70510 | 36122 ft | 430 kts | 325° |
| 2026-05-04 01:22 | 34.97173 | -83.74146 | 36127 ft | 430 kts | 325° |
| 2026-05-04 01:23 | 35.01480 | -83.77168 | 36130 ft | 430 kts | 325° |
| 2026-05-04 01:23 | 35.07496 | -83.81395 | 36129 ft | 429 kts | 325° |
| 2026-05-04 01:24 | 35.11824 | -83.84438 | 36130 ft | 428 kts | 325° |
| 2026-05-04 01:24 | 35.16974 | -83.88067 | 36132 ft | 427 kts | 325° |
| 2026-05-04 01:25 | 35.22107 | -83.91689 | 36138 ft | 426 kts | 325° |
| 2026-05-04 01:25 | 35.27226 | -83.95306 | 36132 ft | 425 kts | 325° |
| 2026-05-04 01:26 | 35.32334 | -83.98921 | 36122 ft | 423 kts | 325° |
| 2026-05-04 01:26 | 35.37430 | -84.02533 | 36123 ft | 423 kts | 325° |
| 2026-05-04 01:27 | 35.42538 | -84.06159 | 36113 ft | 424 kts | 325° |
| 2026-05-04 01:27 | 35.47610 | -84.09765 | 36101 ft | 424 kts | 325° |
| 2026-05-04 01:28 | 35.52704 | -84.13391 | 36097 ft | 424 kts | 325° |
| 2026-05-04 01:28 | 35.57806 | -84.17028 | 36094 ft | 423 kts | 325° |
| 2026-05-04 01:29 | 35.62890 | -84.20657 | 36093 ft | 423 kts | 325° |
| 2026-05-04 01:29 | 35.67975 | -84.24293 | 36095 ft | 422 kts | 324° |
| 2026-05-04 01:30 | 35.73044 | -84.27924 | 36088 ft | 421 kts | 324° |
| 2026-05-04 01:30 | 35.78110 | -84.31557 | 36093 ft | 421 kts | 324° |
| 2026-05-04 01:31 | 35.83168 | -84.35189 | 36093 ft | 420 kts | 324° |
| 2026-05-04 01:31 | 35.88208 | -84.38814 | 36096 ft | 419 kts | 324° |
| 2026-05-04 01:32 | 35.93245 | -84.42443 | 36098 ft | 419 kts | 324° |
| 2026-05-04 01:32 | 35.98266 | -84.46066 | 36099 ft | 418 kts | 324° |
| 2026-05-04 01:33 | 36.03281 | -84.49689 | 36096 ft | 417 kts | 324° |
| 2026-05-04 01:33 | 36.08280 | -84.53306 | 36101 ft | 416 kts | 324° |
| 2026-05-04 01:34 | 36.13273 | -84.56927 | 35836 ft | 420 kts | 324° |
| 2026-05-04 01:34 | 36.15801 | -84.58763 | 35281 ft | 420 kts | 324° |
| 2026-05-04 01:34 | 36.18317 | -84.60588 | 34669 ft | 418 kts | 325° |
| 2026-05-04 01:34 | 36.20826 | -84.62411 | 33986 ft | 418 kts | 325° |
| 2026-05-04 01:35 | 36.23334 | -84.64234 | 33219 ft | 418 kts | 325° |
| 2026-05-04 01:35 | 36.25835 | -84.66053 | 32508 ft | 417 kts | 325° |
| 2026-05-04 01:35 | 36.28304 | -84.67852 | 31793 ft | 417 kts | 325° |
| 2026-05-04 01:35 | 36.30815 | -84.69682 | 31038 ft | 418 kts | 325° |
| 2026-05-04 01:36 | 36.33322 | -84.71512 | 30288 ft | 419 kts | 325° |
| 2026-05-04 01:36 | 36.35838 | -84.73348 | 29437 ft | 420 kts | 325° |
| 2026-05-04 01:36 | 36.38333 | -84.75169 | 28890 ft | 413 kts | 325° |
| 2026-05-04 01:36 | 36.40854 | -84.76853 | 28304 ft | 413 kts | 334° |
| 2026-05-04 01:37 | 36.43609 | -84.77794 | 27986 ft | 411 kts | 346° |
| 2026-05-04 01:37 | 36.46524 | -84.77899 | 27593 ft | 426 kts | 356° |
| 2026-05-04 01:37 | 36.49515 | -84.77717 | 27236 ft | 433 kts | 357° |
| 2026-05-04 01:37 | 36.52538 | -84.77494 | 26878 ft | 435 kts | 357° |
| 2026-05-04 01:38 | 36.55549 | -84.77268 | 26512 ft | 431 kts | 357° |
| 2026-05-04 01:38 | 36.58527 | -84.77057 | 26182 ft | 427 kts | 357° |
| 2026-05-04 01:38 | 36.61485 | -84.76863 | 25842 ft | 424 kts | 357° |
| 2026-05-04 01:38 | 36.64429 | -84.76681 | 25515 ft | 422 kts | 357° |
| 2026-05-04 01:39 | 36.67352 | -84.76507 | 25196 ft | 420 kts | 357° |
| 2026-05-04 01:39 | 36.70272 | -84.76336 | 24859 ft | 418 kts | 357° |
| 2026-05-04 01:39 | 36.73170 | -84.76165 | 24542 ft | 417 kts | 357° |
| 2026-05-04 01:39 | 36.76066 | -84.75995 | 24205 ft | 416 kts | 357° |
| 2026-05-04 01:40 | 36.78955 | -84.75824 | 23880 ft | 415 kts | 357° |
| 2026-05-04 01:40 | 36.81836 | -84.75653 | 23513 ft | 414 kts | 357° |
| 2026-05-04 01:40 | 36.84710 | -84.75481 | 23158 ft | 413 kts | 357° |
| 2026-05-04 01:40 | 36.87564 | -84.75310 | 22807 ft | 407 kts | 357° |
| 2026-05-04 01:41 | 36.90370 | -84.75314 | 22454 ft | 399 kts | 347° |
| 2026-05-04 01:41 | 36.93000 | -84.76107 | 22213 ft | 393 kts | 340° |
| 2026-05-04 01:41 | 36.95636 | -84.77024 | 21869 ft | 393 kts | 340° |
| 2026-05-04 01:41 | 36.98305 | -84.77939 | 21536 ft | 391 kts | 340° |
| 2026-05-04 01:42 | 37.00890 | -84.78812 | 21205 ft | 389 kts | 340° |
| 2026-05-04 01:42 | 37.03497 | -84.79684 | 20893 ft | 387 kts | 340° |
| 2026-05-04 01:42 | 37.06094 | -84.80546 | 20596 ft | 386 kts | 340° |
| 2026-05-04 01:42 | 37.08685 | -84.81404 | 20293 ft | 384 kts | 340° |
| 2026-05-04 01:43 | 37.11267 | -84.82257 | 19996 ft | 383 kts | 340° |
| 2026-05-04 01:43 | 37.13842 | -84.83109 | 19695 ft | 382 kts | 340° |
| 2026-05-04 01:43 | 37.16402 | -84.83956 | 19396 ft | 380 kts | 340° |
| 2026-05-04 01:43 | 37.18951 | -84.84800 | 19095 ft | 378 kts | 340° |
| 2026-05-04 01:44 | 37.21491 | -84.85641 | 18800 ft | 376 kts | 340° |
| 2026-05-04 01:44 | 37.24013 | -84.86477 | 18503 ft | 374 kts | 340° |
| 2026-05-04 01:44 | 37.26524 | -84.87310 | 18184 ft | 371 kts | 340° |
| 2026-05-04 01:44 | 37.29011 | -84.88136 | 17860 ft | 368 kts | 340° |
| 2026-05-04 01:45 | 37.31471 | -84.88953 | 17569 ft | 365 kts | 340° |
| 2026-05-04 01:45 | 37.33915 | -84.89766 | 17253 ft | 362 kts | 340° |
| 2026-05-04 01:45 | 37.38736 | -84.91372 | 16680 ft | 355 kts | 340° |
| 2026-05-04 01:46 | 37.41113 | -84.92163 | 16398 ft | 352 kts | 340° |
| 2026-05-04 01:46 | 37.43471 | -84.92956 | 16120 ft | 349 kts | 338° |
| 2026-05-04 01:46 | 37.45647 | -84.94169 | 15839 ft | 339 kts | 323° |
| 2026-05-04 01:46 | 37.47490 | -84.95969 | 15593 ft | 333 kts | 317° |
| 2026-05-04 01:47 | 37.49213 | -84.97856 | 15331 ft | 332 kts | 316° |
| 2026-05-04 01:47 | 37.50942 | -84.99767 | 15068 ft | 330 kts | 316° |
| 2026-05-04 01:47 | 37.52698 | -85.01682 | 14804 ft | 329 kts | 316° |
| 2026-05-04 01:47 | 37.54400 | -85.03519 | 14537 ft | 323 kts | 317° |
| 2026-05-04 01:48 | 37.56089 | -85.05331 | 14280 ft | 314 kts | 317° |
| 2026-05-04 01:48 | 37.57814 | -85.06950 | 14017 ft | 306 kts | 327° |
| 2026-05-04 01:48 | 37.59747 | -85.07959 | 13724 ft | 298 kts | 336° |
| 2026-05-04 01:48 | 37.61725 | -85.08714 | 13436 ft | 296 kts | 338° |
| 2026-05-04 01:49 | 37.63696 | -85.09438 | 13142 ft | 295 kts | 337° |
| 2026-05-04 01:49 | 37.65674 | -85.10174 | 12856 ft | 299 kts | 337° |
| 2026-05-04 01:49 | 37.67679 | -85.10935 | 12584 ft | 303 kts | 337° |
| 2026-05-04 01:49 | 37.69701 | -85.11710 | 12291 ft | 303 kts | 337° |
| 2026-05-04 01:50 | 37.71712 | -85.12484 | 11989 ft | 302 kts | 337° |
| 2026-05-04 01:50 | 37.73720 | -85.13255 | 11704 ft | 301 kts | 337° |
| 2026-05-04 01:50 | 37.75737 | -85.13986 | 11412 ft | 301 kts | 338° |
| 2026-05-04 01:50 | 37.77756 | -85.14702 | 11140 ft | 300 kts | 338° |
| 2026-05-04 01:51 | 37.79748 | -85.15409 | 10858 ft | 295 kts | 338° |
| 2026-05-04 01:51 | 37.81707 | -85.16108 | 10578 ft | 290 kts | 338° |
| 2026-05-04 01:51 | 37.83634 | -85.16797 | 10304 ft | 285 kts | 338° |
| 2026-05-04 01:51 | 37.85501 | -85.17465 | 10026 ft | 273 kts | 337° |
| 2026-05-04 01:52 | 37.87280 | -85.18102 | 9943 ft | 259 kts | 337° |
| 2026-05-04 01:52 | 37.89030 | -85.18735 | 9569 ft | 261 kts | 337° |
| 2026-05-04 01:52 | 37.90767 | -85.19363 | 9297 ft | 258 kts | 337° |
| 2026-05-04 01:52 | 37.92487 | -85.19983 | 9040 ft | 255 kts | 337° |
| 2026-05-04 01:53 | 37.94186 | -85.20595 | 8785 ft | 253 kts | 337° |
| 2026-05-04 01:53 | 37.95814 | -85.21350 | 8524 ft | 245 kts | 322° |
| 2026-05-04 01:53 | 37.97106 | -85.22676 | 8331 ft | 237 kts | 313° |
| 2026-05-04 01:53 | 37.98314 | -85.24094 | 8099 ft | 236 kts | 313° |
| 2026-05-04 01:54 | 37.99523 | -85.25513 | 7886 ft | 238 kts | 313° |
| 2026-05-04 01:54 | 38.00746 | -85.26944 | 7669 ft | 241 kts | 313° |
| 2026-05-04 01:54 | 38.01971 | -85.28371 | 7444 ft | 242 kts | 313° |
| 2026-05-04 01:54 | 38.03227 | -85.29832 | 7204 ft | 241 kts | 313° |
| 2026-05-04 01:55 | 38.04462 | -85.31269 | 7022 ft | 239 kts | 313° |
| 2026-05-04 01:55 | 38.05653 | -85.32653 | 6942 ft | 233 kts | 313° |
| 2026-05-04 01:55 | 38.06844 | -85.34039 | 6863 ft | 232 kts | 313° |
| 2026-05-04 01:55 | 38.08040 | -85.35434 | 6795 ft | 235 kts | 313° |
| 2026-05-04 01:56 | 38.09253 | -85.36848 | 6728 ft | 239 kts | 314° |
| 2026-05-04 01:56 | 38.10482 | -85.38282 | 6650 ft | 240 kts | 313° |
| 2026-05-04 01:56 | 38.11713 | -85.39717 | 6578 ft | 239 kts | 313° |
| 2026-05-04 01:56 | 38.12937 | -85.41145 | 6499 ft | 238 kts | 313° |
| 2026-05-04 01:57 | 38.14155 | -85.42567 | 6429 ft | 237 kts | 313° |
| 2026-05-04 01:57 | 38.15369 | -85.43985 | 6354 ft | 236 kts | 313° |
| 2026-05-04 01:57 | 38.16578 | -85.45397 | 6282 ft | 236 kts | 313° |
| 2026-05-04 01:57 | 38.17783 | -85.46806 | 6208 ft | 235 kts | 313° |
| 2026-05-04 01:58 | 38.18994 | -85.48222 | 6119 ft | 239 kts | 313° |
| 2026-05-04 01:58 | 38.20221 | -85.49659 | 6029 ft | 240 kts | 313° |
| 2026-05-04 01:58 | 38.21446 | -85.51092 | 6007 ft | 238 kts | 313° |
| 2026-05-04 01:58 | 38.22659 | -85.52513 | 6006 ft | 238 kts | 313° |
| 2026-05-04 01:59 | 38.23883 | -85.53947 | 5995 ft | 239 kts | 313° |
| 2026-05-04 01:59 | 38.25091 | -85.55364 | 6006 ft | 240 kts | 313° |
| 2026-05-04 01:59 | 38.26319 | -85.56804 | 6006 ft | 241 kts | 313° |
| 2026-05-04 01:59 | 38.27550 | -85.58249 | 6000 ft | 241 kts | 313° |
| 2026-05-04 02:00 | 38.28777 | -85.59690 | 6012 ft | 240 kts | 313° |
| 2026-05-04 02:00 | 38.30006 | -85.61134 | 6010 ft | 240 kts | 313° |
| 2026-05-04 02:00 | 38.31235 | -85.62577 | 6006 ft | 240 kts | 313° |
| 2026-05-04 02:00 | 38.32458 | -85.64015 | 5997 ft | 239 kts | 313° |
| 2026-05-04 02:01 | 38.33680 | -85.65451 | 5995 ft | 238 kts | 313° |
| 2026-05-04 02:01 | 38.34900 | -85.66877 | 5996 ft | 238 kts | 315° |
| 2026-05-04 02:01 | 38.36359 | -85.67917 | 6000 ft | 246 kts | 335° |
| 2026-05-04 02:01 | 38.38016 | -85.68510 | 5998 ft | 249 kts | 339° |
| 2026-05-04 02:02 | 38.39701 | -85.69033 | 6004 ft | 249 kts | 339° |
| 2026-05-04 02:02 | 38.41378 | -85.69557 | 6007 ft | 249 kts | 339° |
| 2026-05-04 02:02 | 38.43057 | -85.70140 | 5733 ft | 253 kts | 335° |
| 2026-05-04 02:02 | 38.44714 | -85.70899 | 5433 ft | 251 kts | 332° |
| 2026-05-04 02:03 | 38.46329 | -85.71714 | 5216 ft | 247 kts | 327° |
| 2026-05-04 02:03 | 38.47540 | -85.73081 | 5060 ft | 227 kts | 291° |
| 2026-05-04 02:03 | 38.47755 | -85.74992 | 4958 ft | 221 kts | 256° |
| 2026-05-04 02:03 | 38.47016 | -85.76700 | 4885 ft | 222 kts | 235° |
| 2026-05-04 02:04 | 38.45959 | -85.78152 | 4764 ft | 229 kts | 216° |
| 2026-05-04 02:04 | 38.44395 | -85.78756 | 4730 ft | 243 kts | 196° |
| 2026-05-04 02:04 | 38.42717 | -85.79079 | 4626 ft | 242 kts | 195° |
| 2026-05-04 02:04 | 38.41072 | -85.79376 | 4519 ft | 234 kts | 195° |
| 2026-05-04 02:05 | 38.39476 | -85.79631 | 4378 ft | 231 kts | 188° |
| 2026-05-04 02:05 | 38.37874 | -85.79369 | 4215 ft | 232 kts | 174° |
| 2026-05-04 02:05 | 38.36312 | -85.78960 | 4057 ft | 226 kts | 175° |
| 2026-05-04 02:05 | 38.34783 | -85.78526 | 3779 ft | 227 kts | 174° |
| 2026-05-04 02:06 | 38.33259 | -85.78075 | 3470 ft | 223 kts | 174° |
| 2026-05-04 02:06 | 38.31785 | -85.77625 | 3167 ft | 219 kts | 172° |
| 2026-05-04 02:06 | 38.30325 | -85.77125 | 2850 ft | 215 kts | 172° |
| 2026-05-04 02:06 | 38.28936 | -85.76639 | 2600 ft | 198 kts | 171° |
| 2026-05-04 02:07 | 38.27678 | -85.76203 | 2389 ft | 179 kts | 172° |
| 2026-05-04 02:07 | 38.26529 | -85.75811 | 2177 ft | 163 kts | 172° |
| 2026-05-04 02:07 | 38.25489 | -85.75454 | 1968 ft | 147 kts | 173° |
| 2026-05-04 02:07 | 38.24541 | -85.75131 | 1790 ft | 141 kts | 173° |
| 2026-05-04 02:08 | 38.23602 | -85.74810 | 1601 ft | 139 kts | 171° |
| 2026-05-04 02:08 | 38.22643 | -85.74485 | 1412 ft | 144 kts | 170° |
| 2026-05-04 02:08 | 38.21664 | -85.74168 | 1188 ft | 147 kts | 167° |
| 2026-05-04 02:08 | 38.20671 | -85.73803 | 976 ft | 150 kts | 165° |
| 2026-05-04 02:09 | 38.19669 | -85.73451 | 742 ft | 147 kts | 165° |
| 2026-05-04 02:09 | 38.18688 | -85.73117 | 546 ft | 145 kts | 166° |
| 2026-05-04 02:09 | 38.17778 | -85.72811 | 488 ft | 103 kts | 165° |
| 2026-05-04 02:09 | 38.17399 | -85.72681 | 484 ft | 36 kts | 165° |
| 2026-05-04 02:10 | 38.17295 | -85.72716 | 479 ft | 13 kts | 259° |
| 2026-05-04 02:10 | 38.17300 | -85.72764 | 479 ft | 0 kts | 297° |
| 2026-05-04 02:10 | 38.17300 | -85.72765 | 479 ft | 0 kts | 297° |
| 2026-05-04 02:11 | 38.17313 | -85.72793 | 484 ft | 0 kts | 298° |
| 2026-05-04 02:11 | 38.17334 | -85.72817 | 482 ft | 13 kts | 333° |
| 2026-05-04 02:11 | 38.17456 | -85.72861 | 479 ft | 19 kts | 345° |
| 2026-05-04 02:11 | 38.17580 | -85.72915 | 483 ft | 19 kts | 314° |
| 2026-05-04 02:12 | 38.17617 | -85.73014 | 485 ft | 19 kts | 287° |
| 2026-05-04 02:12 | 38.17678 | -85.73213 | 482 ft | 18 kts | 291° |
| 2026-05-04 02:12 | 38.17746 | -85.73324 | 477 ft | 17 kts | 356° |
| 2026-05-04 02:12 | 38.17856 | -85.73343 | 485 ft | 14 kts | 347° |
| 2026-05-04 02:13 | 38.17947 | -85.73370 | 487 ft | 15 kts | 339° |
| 2026-05-04 02:13 | 38.18050 | -85.73440 | 492 ft | 18 kts | 329° |
| 2026-05-04 02:13 | 38.18152 | -85.73519 | 486 ft | 17 kts | 329° |
| 2026-05-04 02:13 | 38.18253 | -85.73591 | 493 ft | 16 kts | 331° |
| 2026-05-04 02:14 | 38.18318 | -85.73636 | 492 ft | 16 kts | 330° |
| 2026-05-04 02:14 | 38.18415 | -85.73725 | 494 ft | 17 kts | 324° |
| 2026-05-04 02:14 | 38.18455 | -85.73824 | 491 ft | 6 kts | 220° |
| 2026-05-04 02:14 | 38.18410 | -85.73872 | 484 ft | 7 kts | 225° |
| 2026-05-04 02:15 | 38.18409 | -85.73873 | 485 ft | 0 kts | 225° |